sensor_id;sensor_type;location;lat;lon;timestamp;P1;durP1;ratioP1;P2;durP2;ratioP2
68310;SDS011;55157;51.036;17.058;2022-12-07T00:01:05;8.20;;;6.40;;
68310;SDS011;55157;51.036;17.058;2022-12-07T00:03:31;15.32;;;7.28;;
68310;SDS011;55157;51.036;17.058;2022-12-07T00:05:58;8.05;;;6.15;;
68310;SDS011;55157;51.036;17.058;2022-12-07T00:08:23;7.30;;;5.60;;
68310;SDS011;55157;51.036;17.058;2022-12-07T00:10:48;9.13;;;5.85;;
68310;SDS011;55157;51.036;17.058;2022-12-07T00:13:14;7.78;;;5.72;;
68310;SDS011;55157;51.036;17.058;2022-12-07T00:15:39;9.95;;;6.30;;
68310;SDS011;55157;51.036;17.058;2022-12-07T00:18:04;9.05;;;6.25;;
68310;SDS011;55157;51.036;17.058;2022-12-07T00:20:29;7.97;;;5.45;;
68310;SDS011;55157;51.036;17.058;2022-12-07T00:22:56;9.70;;;5.03;;
68310;SDS011;55157;51.036;17.058;2022-12-07T00:25:21;7.70;;;5.75;;
68310;SDS011;55157;51.036;17.058;2022-12-07T00:27:46;5.85;;;4.65;;
68310;SDS011;55157;51.036;17.058;2022-12-07T00:30:12;7.38;;;5.45;;
68310;SDS011;55157;51.036;17.058;2022-12-07T00:32:37;10.68;;;5.28;;
68310;SDS011;55157;51.036;17.058;2022-12-07T00:35:02;7.38;;;5.13;;
68310;SDS011;55157;51.036;17.058;2022-12-07T00:37:28;6.25;;;4.78;;
68310;SDS011;55157;51.036;17.058;2022-12-07T00:39:54;8.63;;;6.18;;
68310;SDS011;55157;51.036;17.058;2022-12-07T00:42:20;10.10;;;5.45;;
68310;SDS011;55157;51.036;17.058;2022-12-07T00:44:45;10.30;;;5.90;;
68310;SDS011;55157;51.036;17.058;2022-12-07T00:47:10;7.40;;;5.60;;
68310;SDS011;55157;51.036;17.058;2022-12-07T00:49:35;6.43;;;5.00;;
68310;SDS011;55157;51.036;17.058;2022-12-07T00:52:01;6.88;;;4.68;;
68310;SDS011;55157;51.036;17.058;2022-12-07T00:54:26;7.22;;;5.43;;
68310;SDS011;55157;51.036;17.058;2022-12-07T00:56:52;5.95;;;4.35;;
68310;SDS011;55157;51.036;17.058;2022-12-07T00:59:18;11.23;;;4.55;;
68310;SDS011;55157;51.036;17.058;2022-12-07T01:01:43;5.85;;;4.28;;
68310;SDS011;55157;51.036;17.058;2022-12-07T01:04:08;5.65;;;3.88;;
68310;SDS011;55157;51.036;17.058;2022-12-07T01:06:33;6.40;;;3.50;;
68310;SDS011;55157;51.036;17.058;2022-12-07T01:08:59;5.38;;;3.10;;
68310;SDS011;55157;51.036;17.058;2022-12-07T01:11:25;4.25;;;3.33;;
68310;SDS011;55157;51.036;17.058;2022-12-07T01:13:52;5.78;;;3.80;;
68310;SDS011;55157;51.036;17.058;2022-12-07T01:16:18;3.33;;;2.55;;
68310;SDS011;55157;51.036;17.058;2022-12-07T01:18:45;3.95;;;2.60;;
68310;SDS011;55157;51.036;17.058;2022-12-07T01:21:11;4.50;;;2.67;;
68310;SDS011;55157;51.036;17.058;2022-12-07T01:23:37;6.57;;;2.85;;
68310;SDS011;55157;51.036;17.058;2022-12-07T01:26:03;3.45;;;2.50;;
68310;SDS011;55157;51.036;17.058;2022-12-07T01:28:28;3.75;;;2.50;;
68310;SDS011;55157;51.036;17.058;2022-12-07T01:30:56;6.05;;;3.08;;
68310;SDS011;55157;51.036;17.058;2022-12-07T01:33:21;4.57;;;2.50;;
68310;SDS011;55157;51.036;17.058;2022-12-07T01:35:46;2.90;;;2.38;;
68310;SDS011;55157;51.036;17.058;2022-12-07T01:38:12;3.80;;;2.42;;
68310;SDS011;55157;51.036;17.058;2022-12-07T01:40:37;4.68;;;2.65;;
68310;SDS011;55157;51.036;17.058;2022-12-07T01:43:02;4.07;;;2.63;;
68310;SDS011;55157;51.036;17.058;2022-12-07T01:45:37;5.10;;;2.78;;
68310;SDS011;55157;51.036;17.058;2022-12-07T01:48:04;3.38;;;2.47;;
68310;SDS011;55157;51.036;17.058;2022-12-07T01:50:30;4.68;;;2.50;;
68310;SDS011;55157;51.036;17.058;2022-12-07T01:52:55;6.57;;;2.47;;
68310;SDS011;55157;51.036;17.058;2022-12-07T01:55:21;2.95;;;2.10;;
68310;SDS011;55157;51.036;17.058;2022-12-07T01:57:47;2.63;;;1.95;;
68310;SDS011;55157;51.036;17.058;2022-12-07T02:00:13;3.22;;;2.03;;
68310;SDS011;55157;51.036;17.058;2022-12-07T02:02:41;2.88;;;1.77;;
68310;SDS011;55157;51.036;17.058;2022-12-07T02:05:09;2.78;;;1.70;;
68310;SDS011;55157;51.036;17.058;2022-12-07T02:07:34;2.95;;;1.58;;
68310;SDS011;55157;51.036;17.058;2022-12-07T02:10:11;2.15;;;1.55;;
68310;SDS011;55157;51.036;17.058;2022-12-07T02:12:36;3.63;;;1.65;;
68310;SDS011;55157;51.036;17.058;2022-12-07T02:15:02;2.22;;;1.60;;
68310;SDS011;55157;51.036;17.058;2022-12-07T02:17:28;1.95;;;1.48;;
68310;SDS011;55157;51.036;17.058;2022-12-07T02:20:04;2.83;;;1.67;;
68310;SDS011;55157;51.036;17.058;2022-12-07T02:22:45;3.38;;;1.60;;
68310;SDS011;55157;51.036;17.058;2022-12-07T02:25:13;3.75;;;1.58;;
68310;SDS011;55157;51.036;17.058;2022-12-07T02:27:44;1.88;;;1.67;;
68310;SDS011;55157;51.036;17.058;2022-12-07T02:30:12;2.53;;;1.45;;
68310;SDS011;55157;51.036;17.058;2022-12-07T02:32:40;4.60;;;1.73;;
68310;SDS011;55157;51.036;17.058;2022-12-07T02:35:08;2.40;;;1.42;;
68310;SDS011;55157;51.036;17.058;2022-12-07T02:37:36;3.08;;;1.70;;
68310;SDS011;55157;51.036;17.058;2022-12-07T02:40:05;3.03;;;1.58;;
68310;SDS011;55157;51.036;17.058;2022-12-07T02:42:32;1.95;;;1.40;;
68310;SDS011;55157;51.036;17.058;2022-12-07T02:44:58;1.85;;;1.30;;
68310;SDS011;55157;51.036;17.058;2022-12-07T02:47:26;3.35;;;1.70;;
68310;SDS011;55157;51.036;17.058;2022-12-07T02:49:53;2.03;;;1.60;;
68310;SDS011;55157;51.036;17.058;2022-12-07T02:52:18;2.33;;;1.40;;
68310;SDS011;55157;51.036;17.058;2022-12-07T02:54:43;4.22;;;1.60;;
68310;SDS011;55157;51.036;17.058;2022-12-07T02:57:13;2.22;;;1.25;;
68310;SDS011;55157;51.036;17.058;2022-12-07T02:59:44;3.22;;;1.83;;
68310;SDS011;55157;51.036;17.058;2022-12-07T03:02:16;1.97;;;1.40;;
68310;SDS011;55157;51.036;17.058;2022-12-07T03:04:46;7.85;;;2.13;;
68310;SDS011;55157;51.036;17.058;2022-12-07T03:07:18;1.75;;;1.35;;
68310;SDS011;55157;51.036;17.058;2022-12-07T03:09:48;2.90;;;1.80;;
68310;SDS011;55157;51.036;17.058;2022-12-07T03:12:16;2.05;;;1.63;;
68310;SDS011;55157;51.036;17.058;2022-12-07T03:14:45;1.98;;;1.40;;
68310;SDS011;55157;51.036;17.058;2022-12-07T03:17:12;2.35;;;1.60;;
68310;SDS011;55157;51.036;17.058;2022-12-07T03:19:39;3.05;;;1.50;;
68310;SDS011;55157;51.036;17.058;2022-12-07T03:22:07;1.85;;;1.20;;
68310;SDS011;55157;51.036;17.058;2022-12-07T03:24:35;2.20;;;1.70;;
68310;SDS011;55157;51.036;17.058;2022-12-07T03:27:16;7.53;;;1.90;;
68310;SDS011;55157;51.036;17.058;2022-12-07T03:29:42;3.88;;;1.77;;
68310;SDS011;55157;51.036;17.058;2022-12-07T03:32:10;5.60;;;1.83;;
68310;SDS011;55157;51.036;17.058;2022-12-07T03:34:38;2.17;;;1.80;;
68310;SDS011;55157;51.036;17.058;2022-12-07T03:37:07;2.50;;;1.92;;
68310;SDS011;55157;51.036;17.058;2022-12-07T03:39:36;2.38;;;1.77;;
68310;SDS011;55157;51.036;17.058;2022-12-07T03:42:04;3.28;;;2.25;;
68310;SDS011;55157;51.036;17.058;2022-12-07T03:44:29;4.53;;;2.10;;
68310;SDS011;55157;51.036;17.058;2022-12-07T03:46:58;2.00;;;1.80;;
68310;SDS011;55157;51.036;17.058;2022-12-07T03:49:25;6.47;;;2.90;;
68310;SDS011;55157;51.036;17.058;2022-12-07T03:51:51;4.57;;;2.42;;
68310;SDS011;55157;51.036;17.058;2022-12-07T03:54:21;3.53;;;2.10;;
68310;SDS011;55157;51.036;17.058;2022-12-07T03:56:48;2.67;;;2.38;;
68310;SDS011;55157;51.036;17.058;2022-12-07T03:59:14;2.92;;;2.13;;
68310;SDS011;55157;51.036;17.058;2022-12-07T04:01:41;4.05;;;2.22;;
68310;SDS011;55157;51.036;17.058;2022-12-07T04:04:06;3.70;;;2.53;;
68310;SDS011;55157;51.036;17.058;2022-12-07T04:06:31;3.67;;;2.58;;
68310;SDS011;55157;51.036;17.058;2022-12-07T04:08:57;4.57;;;2.70;;
68310;SDS011;55157;51.036;17.058;2022-12-07T04:11:23;3.05;;;1.95;;
68310;SDS011;55157;51.036;17.058;2022-12-07T04:13:48;2.70;;;2.17;;
68310;SDS011;55157;51.036;17.058;2022-12-07T04:16:14;3.70;;;2.70;;
68310;SDS011;55157;51.036;17.058;2022-12-07T04:18:39;3.45;;;2.63;;
68310;SDS011;55157;51.036;17.058;2022-12-07T04:21:04;5.53;;;3.25;;
68310;SDS011;55157;51.036;17.058;2022-12-07T04:23:29;3.63;;;3.13;;
68310;SDS011;55157;51.036;17.058;2022-12-07T04:25:55;4.82;;;2.97;;
68310;SDS011;55157;51.036;17.058;2022-12-07T04:28:21;3.92;;;2.80;;
68310;SDS011;55157;51.036;17.058;2022-12-07T04:30:46;4.60;;;3.05;;
68310;SDS011;55157;51.036;17.058;2022-12-07T04:33:12;3.45;;;3.15;;
68310;SDS011;55157;51.036;17.058;2022-12-07T04:35:37;5.30;;;3.00;;
68310;SDS011;55157;51.036;17.058;2022-12-07T04:38:02;4.30;;;3.22;;
68310;SDS011;55157;51.036;17.058;2022-12-07T04:40:27;3.72;;;2.78;;
68310;SDS011;55157;51.036;17.058;2022-12-07T04:42:52;3.42;;;2.63;;
68310;SDS011;55157;51.036;17.058;2022-12-07T04:45:19;4.25;;;2.70;;
68310;SDS011;55157;51.036;17.058;2022-12-07T04:47:44;5.05;;;2.75;;
68310;SDS011;55157;51.036;17.058;2022-12-07T04:50:10;4.63;;;3.10;;
68310;SDS011;55157;51.036;17.058;2022-12-07T04:52:35;3.58;;;2.80;;
68310;SDS011;55157;51.036;17.058;2022-12-07T04:55:00;4.28;;;2.83;;
68310;SDS011;55157;51.036;17.058;2022-12-07T04:57:25;3.20;;;2.75;;
68310;SDS011;55157;51.036;17.058;2022-12-07T04:59:51;5.28;;;2.85;;
68310;SDS011;55157;51.036;17.058;2022-12-07T05:02:17;5.50;;;2.78;;
68310;SDS011;55157;51.036;17.058;2022-12-07T05:04:42;3.83;;;2.95;;
68310;SDS011;55157;51.036;17.058;2022-12-07T05:07:08;4.22;;;2.90;;
68310;SDS011;55157;51.036;17.058;2022-12-07T05:09:33;6.13;;;3.08;;
68310;SDS011;55157;51.036;17.058;2022-12-07T05:11:58;4.43;;;3.10;;
68310;SDS011;55157;51.036;17.058;2022-12-07T05:14:23;3.72;;;3.10;;
68310;SDS011;55157;51.036;17.058;2022-12-07T05:16:49;4.97;;;3.25;;
68310;SDS011;55157;51.036;17.058;2022-12-07T05:19:17;4.10;;;2.55;;
68310;SDS011;55157;51.036;17.058;2022-12-07T05:21:42;4.10;;;2.88;;
68310;SDS011;55157;51.036;17.058;2022-12-07T05:24:08;4.45;;;3.03;;
68310;SDS011;55157;51.036;17.058;2022-12-07T05:26:34;6.90;;;3.40;;
68310;SDS011;55157;51.036;17.058;2022-12-07T05:29:00;5.53;;;3.25;;
68310;SDS011;55157;51.036;17.058;2022-12-07T05:31:25;8.73;;;4.35;;
68310;SDS011;55157;51.036;17.058;2022-12-07T05:33:51;5.72;;;4.32;;
68310;SDS011;55157;51.036;17.058;2022-12-07T05:36:17;6.10;;;4.25;;
68310;SDS011;55157;51.036;17.058;2022-12-07T05:38:43;8.32;;;6.13;;
68310;SDS011;55157;51.036;17.058;2022-12-07T05:41:08;14.82;;;5.57;;
68310;SDS011;55157;51.036;17.058;2022-12-07T05:43:33;12.48;;;6.00;;
68310;SDS011;55157;51.036;17.058;2022-12-07T05:46:00;10.30;;;7.28;;
68310;SDS011;55157;51.036;17.058;2022-12-07T05:48:25;15.80;;;8.30;;
68310;SDS011;55157;51.036;17.058;2022-12-07T05:50:51;12.82;;;9.10;;
68310;SDS011;55157;51.036;17.058;2022-12-07T05:53:18;15.75;;;10.15;;
68310;SDS011;55157;51.036;17.058;2022-12-07T05:55:44;13.80;;;9.80;;
68310;SDS011;55157;51.036;17.058;2022-12-07T05:58:09;17.58;;;10.73;;
68310;SDS011;55157;51.036;17.058;2022-12-07T06:00:34;16.13;;;10.40;;
68310;SDS011;55157;51.036;17.058;2022-12-07T06:02:59;16.38;;;10.73;;
68310;SDS011;55157;51.036;17.058;2022-12-07T06:05:25;16.65;;;11.88;;
68310;SDS011;55157;51.036;17.058;2022-12-07T06:07:50;17.58;;;11.82;;
68310;SDS011;55157;51.036;17.058;2022-12-07T06:10:17;18.60;;;12.57;;
68310;SDS011;55157;51.036;17.058;2022-12-07T06:12:42;18.13;;;11.82;;
68310;SDS011;55157;51.036;17.058;2022-12-07T06:15:08;20.50;;;12.95;;
68310;SDS011;55157;51.036;17.058;2022-12-07T06:17:33;18.65;;;13.27;;
68310;SDS011;55157;51.036;17.058;2022-12-07T06:19:58;18.10;;;12.95;;
68310;SDS011;55157;51.036;17.058;2022-12-07T06:22:23;25.27;;;14.32;;
68310;SDS011;55157;51.036;17.058;2022-12-07T06:24:49;22.20;;;14.15;;
68310;SDS011;55157;51.036;17.058;2022-12-07T06:27:15;19.13;;;13.52;;
68310;SDS011;55157;51.036;17.058;2022-12-07T06:29:40;22.70;;;14.18;;
68310;SDS011;55157;51.036;17.058;2022-12-07T06:32:06;19.42;;;13.40;;
68310;SDS011;55157;51.036;17.058;2022-12-07T06:34:31;19.77;;;14.45;;
68310;SDS011;55157;51.036;17.058;2022-12-07T06:36:56;20.10;;;14.57;;
68310;SDS011;55157;51.036;17.058;2022-12-07T06:39:22;21.13;;;14.82;;
68310;SDS011;55157;51.036;17.058;2022-12-07T06:41:48;23.60;;;14.05;;
68310;SDS011;55157;51.036;17.058;2022-12-07T06:44:15;18.02;;;12.80;;
68310;SDS011;55157;51.036;17.058;2022-12-07T06:46:40;21.23;;;14.57;;
68310;SDS011;55157;51.036;17.058;2022-12-07T06:49:05;18.60;;;13.65;;
68310;SDS011;55157;51.036;17.058;2022-12-07T06:51:30;25.88;;;14.80;;
68310;SDS011;55157;51.036;17.058;2022-12-07T06:53:56;22.65;;;14.43;;
68310;SDS011;55157;51.036;17.058;2022-12-07T06:56:21;19.05;;;14.05;;
68310;SDS011;55157;51.036;17.058;2022-12-07T06:58:46;20.27;;;14.75;;
68310;SDS011;55157;51.036;17.058;2022-12-07T07:01:14;24.25;;;15.05;;
68310;SDS011;55157;51.036;17.058;2022-12-07T07:03:39;21.60;;;14.70;;
68310;SDS011;55157;51.036;17.058;2022-12-07T07:06:05;20.88;;;14.00;;
68310;SDS011;55157;51.036;17.058;2022-12-07T07:08:30;19.58;;;13.63;;
68310;SDS011;55157;51.036;17.058;2022-12-07T07:10:56;23.73;;;14.23;;
68310;SDS011;55157;51.036;17.058;2022-12-07T07:13:21;20.15;;;13.63;;
68310;SDS011;55157;51.036;17.058;2022-12-07T07:15:46;20.30;;;13.70;;
68310;SDS011;55157;51.036;17.058;2022-12-07T07:18:13;19.95;;;14.15;;
68310;SDS011;55157;51.036;17.058;2022-12-07T07:20:38;26.73;;;14.55;;
68310;SDS011;55157;51.036;17.058;2022-12-07T07:23:03;21.70;;;14.23;;
68310;SDS011;55157;51.036;17.058;2022-12-07T07:25:29;20.17;;;13.57;;
68310;SDS011;55157;51.036;17.058;2022-12-07T07:27:54;23.90;;;14.32;;
68310;SDS011;55157;51.036;17.058;2022-12-07T07:30:19;20.58;;;13.77;;
68310;SDS011;55157;51.036;17.058;2022-12-07T07:32:45;21.85;;;14.98;;
68310;SDS011;55157;51.036;17.058;2022-12-07T07:35:11;20.08;;;13.88;;
68310;SDS011;55157;51.036;17.058;2022-12-07T07:37:36;20.65;;;14.23;;
68310;SDS011;55157;51.036;17.058;2022-12-07T07:40:02;25.10;;;15.02;;
68310;SDS011;55157;51.036;17.058;2022-12-07T07:42:27;19.85;;;14.13;;
68310;SDS011;55157;51.036;17.058;2022-12-07T07:44:52;22.30;;;14.18;;
68310;SDS011;55157;51.036;17.058;2022-12-07T07:47:18;22.98;;;14.52;;
68310;SDS011;55157;51.036;17.058;2022-12-07T07:49:43;20.88;;;13.75;;
68310;SDS011;55157;51.036;17.058;2022-12-07T07:52:09;17.08;;;12.80;;
68310;SDS011;55157;51.036;17.058;2022-12-07T07:54:35;22.30;;;13.52;;
68310;SDS011;55157;51.036;17.058;2022-12-07T07:57:00;20.80;;;13.95;;
68310;SDS011;55157;51.036;17.058;2022-12-07T07:59:25;31.58;;;15.48;;
68310;SDS011;55157;51.036;17.058;2022-12-07T08:01:50;20.98;;;14.95;;
68310;SDS011;55157;51.036;17.058;2022-12-07T08:04:16;20.02;;;13.90;;
68310;SDS011;55157;51.036;17.058;2022-12-07T08:06:41;22.70;;;14.35;;
68310;SDS011;55157;51.036;17.058;2022-12-07T08:09:07;17.05;;;12.88;;
68310;SDS011;55157;51.036;17.058;2022-12-07T08:11:33;20.45;;;14.02;;
68310;SDS011;55157;51.036;17.058;2022-12-07T08:13:58;19.70;;;13.38;;
68310;SDS011;55157;51.036;17.058;2022-12-07T08:16:23;20.08;;;13.65;;
68310;SDS011;55157;51.036;17.058;2022-12-07T08:18:48;24.10;;;14.57;;
68310;SDS011;55157;51.036;17.058;2022-12-07T08:21:14;20.85;;;13.57;;
68310;SDS011;55157;51.036;17.058;2022-12-07T08:23:39;18.92;;;12.75;;
68310;SDS011;55157;51.036;17.058;2022-12-07T08:26:07;19.48;;;13.95;;
68310;SDS011;55157;51.036;17.058;2022-12-07T08:28:32;20.98;;;14.60;;
68310;SDS011;55157;51.036;17.058;2022-12-07T08:30:58;20.67;;;13.07;;
68310;SDS011;55157;51.036;17.058;2022-12-07T08:33:24;20.42;;;13.07;;
68310;SDS011;55157;51.036;17.058;2022-12-07T08:35:49;20.52;;;13.27;;
68310;SDS011;55157;51.036;17.058;2022-12-07T08:38:14;23.30;;;13.05;;
68310;SDS011;55157;51.036;17.058;2022-12-07T08:40:39;23.00;;;12.35;;
68310;SDS011;55157;51.036;17.058;2022-12-07T08:43:06;17.17;;;12.50;;
68310;SDS011;55157;51.036;17.058;2022-12-07T08:45:31;15.38;;;11.38;;
68310;SDS011;55157;51.036;17.058;2022-12-07T08:47:57;16.40;;;11.82;;
68310;SDS011;55157;51.036;17.058;2022-12-07T08:50:25;15.55;;;10.48;;
68310;SDS011;55157;51.036;17.058;2022-12-07T08:52:50;18.60;;;10.60;;
68310;SDS011;55157;51.036;17.058;2022-12-07T08:55:16;14.60;;;10.25;;
68310;SDS011;55157;51.036;17.058;2022-12-07T08:57:42;14.98;;;9.80;;
68310;SDS011;55157;51.036;17.058;2022-12-07T09:00:09;14.73;;;10.32;;
68310;SDS011;55157;51.036;17.058;2022-12-07T09:02:34;14.43;;;9.85;;
68310;SDS011;55157;51.036;17.058;2022-12-07T09:05:00;16.50;;;11.52;;
68310;SDS011;55157;51.036;17.058;2022-12-07T09:07:25;19.92;;;11.40;;
68310;SDS011;55157;51.036;17.058;2022-12-07T09:09:51;16.95;;;10.60;;
68310;SDS011;55157;51.036;17.058;2022-12-07T09:12:16;17.05;;;9.02;;
68310;SDS011;55157;51.036;17.058;2022-12-07T09:14:41;14.57;;;9.27;;
68310;SDS011;55157;51.036;17.058;2022-12-07T09:17:08;13.45;;;8.63;;
68310;SDS011;55157;51.036;17.058;2022-12-07T09:19:34;13.48;;;8.50;;
68310;SDS011;55157;51.036;17.058;2022-12-07T09:21:59;15.85;;;7.05;;
68310;SDS011;55157;51.036;17.058;2022-12-07T09:24:24;10.98;;;6.78;;
68310;SDS011;55157;51.036;17.058;2022-12-07T09:26:49;11.82;;;7.95;;
68310;SDS011;55157;51.036;17.058;2022-12-07T09:29:15;13.30;;;8.43;;
68310;SDS011;55157;51.036;17.058;2022-12-07T09:31:40;11.50;;;8.77;;
68310;SDS011;55157;51.036;17.058;2022-12-07T09:34:06;9.90;;;7.40;;
68310;SDS011;55157;51.036;17.058;2022-12-07T09:36:32;15.07;;;8.27;;
68310;SDS011;55157;51.036;17.058;2022-12-07T09:38:57;12.65;;;7.93;;
68310;SDS011;55157;51.036;17.058;2022-12-07T09:41:23;9.90;;;7.28;;
68310;SDS011;55157;51.036;17.058;2022-12-07T09:43:48;10.32;;;7.43;;
68310;SDS011;55157;51.036;17.058;2022-12-07T09:46:15;10.35;;;7.20;;
68310;SDS011;55157;51.036;17.058;2022-12-07T09:48:41;11.43;;;8.30;;
68310;SDS011;55157;51.036;17.058;2022-12-07T09:51:13;14.30;;;9.60;;
68310;SDS011;55157;51.036;17.058;2022-12-07T09:53:39;12.50;;;8.48;;
68310;SDS011;55157;51.036;17.058;2022-12-07T09:56:05;13.90;;;7.95;;
68310;SDS011;55157;51.036;17.058;2022-12-07T09:58:30;15.88;;;9.30;;
68310;SDS011;55157;51.036;17.058;2022-12-07T10:00:56;12.65;;;8.55;;
68310;SDS011;55157;51.036;17.058;2022-12-07T10:03:23;13.23;;;9.23;;
68310;SDS011;55157;51.036;17.058;2022-12-07T10:05:49;12.52;;;9.15;;
68310;SDS011;55157;51.036;17.058;2022-12-07T10:08:16;18.77;;;9.23;;
68310;SDS011;55157;51.036;17.058;2022-12-07T10:10:42;14.40;;;10.55;;
68310;SDS011;55157;51.036;17.058;2022-12-07T10:13:08;13.57;;;10.18;;
68310;SDS011;55157;51.036;17.058;2022-12-07T10:15:47;14.93;;;10.38;;
68310;SDS011;55157;51.036;17.058;2022-12-07T10:18:20;19.27;;;9.80;;
68310;SDS011;55157;51.036;17.058;2022-12-07T10:20:45;17.50;;;9.25;;
68310;SDS011;55157;51.036;17.058;2022-12-07T10:23:13;15.35;;;9.93;;
68310;SDS011;55157;51.036;17.058;2022-12-07T10:25:41;20.67;;;11.60;;
68310;SDS011;55157;51.036;17.058;2022-12-07T10:28:13;19.30;;;10.70;;
68310;SDS011;55157;51.036;17.058;2022-12-07T10:30:46;21.25;;;12.98;;
68310;SDS011;55157;51.036;17.058;2022-12-07T10:33:15;26.08;;;14.98;;
68310;SDS011;55157;51.036;17.058;2022-12-07T10:35:51;22.95;;;13.35;;
68310;SDS011;55157;51.036;17.058;2022-12-07T10:38:17;30.45;;;12.30;;
68310;SDS011;55157;51.036;17.058;2022-12-07T10:40:43;20.92;;;12.00;;
68310;SDS011;55157;51.036;17.058;2022-12-07T10:43:15;24.33;;;11.65;;
68310;SDS011;55157;51.036;17.058;2022-12-07T10:45:43;18.77;;;10.35;;
68310;SDS011;55157;51.036;17.058;2022-12-07T10:48:23;22.40;;;9.45;;
68310;SDS011;55157;51.036;17.058;2022-12-07T10:50:54;16.98;;;8.60;;
68310;SDS011;55157;51.036;17.058;2022-12-07T10:53:34;13.75;;;8.80;;
68310;SDS011;55157;51.036;17.058;2022-12-07T10:56:09;10.38;;;7.13;;
68310;SDS011;55157;51.036;17.058;2022-12-07T10:58:43;11.48;;;7.85;;
68310;SDS011;55157;51.036;17.058;2022-12-07T11:01:12;11.13;;;5.80;;
68310;SDS011;55157;51.036;17.058;2022-12-07T11:03:44;10.75;;;6.05;;
68310;SDS011;55157;51.036;17.058;2022-12-07T11:06:17;5.40;;;3.22;;
68310;SDS011;55157;51.036;17.058;2022-12-07T11:08:49;5.20;;;3.58;;
68310;SDS011;55157;51.036;17.058;2022-12-07T11:11:21;5.55;;;2.90;;
68310;SDS011;55157;51.036;17.058;2022-12-07T11:13:51;4.20;;;2.88;;
68310;SDS011;55157;51.036;17.058;2022-12-07T11:16:24;4.80;;;3.15;;
68310;SDS011;55157;51.036;17.058;2022-12-07T11:18:57;4.97;;;3.33;;
68310;SDS011;55157;51.036;17.058;2022-12-07T11:21:26;4.97;;;3.65;;
68310;SDS011;55157;51.036;17.058;2022-12-07T11:23:53;5.68;;;3.28;;
68310;SDS011;55157;51.036;17.058;2022-12-07T11:26:29;6.55;;;4.20;;
68310;SDS011;55157;51.036;17.058;2022-12-07T11:29:03;11.38;;;3.97;;
68310;SDS011;55157;51.036;17.058;2022-12-07T11:31:32;10.13;;;5.03;;
68310;SDS011;55157;51.036;17.058;2022-12-07T11:34:00;7.90;;;5.25;;
68310;SDS011;55157;51.036;17.058;2022-12-07T11:36:33;7.85;;;5.47;;
68310;SDS011;55157;51.036;17.058;2022-12-07T11:39:02;9.55;;;5.60;;
68310;SDS011;55157;51.036;17.058;2022-12-07T11:41:31;8.85;;;5.85;;
68310;SDS011;55157;51.036;17.058;2022-12-07T11:43:58;8.05;;;5.18;;
68310;SDS011;55157;51.036;17.058;2022-12-07T11:46:27;7.22;;;4.95;;
68310;SDS011;55157;51.036;17.058;2022-12-07T11:48:54;6.13;;;4.40;;
68310;SDS011;55157;51.036;17.058;2022-12-07T11:51:23;7.40;;;5.10;;
68310;SDS011;55157;51.036;17.058;2022-12-07T11:53:49;8.65;;;4.68;;
68310;SDS011;55157;51.036;17.058;2022-12-07T11:56:17;6.25;;;4.45;;
68310;SDS011;55157;51.036;17.058;2022-12-07T11:58:46;5.50;;;3.53;;
68310;SDS011;55157;51.036;17.058;2022-12-07T12:01:14;5.95;;;3.67;;
68310;SDS011;55157;51.036;17.058;2022-12-07T12:03:44;5.18;;;3.35;;
68310;SDS011;55157;51.036;17.058;2022-12-07T12:06:10;5.38;;;2.83;;
68310;SDS011;55157;51.036;17.058;2022-12-07T12:08:36;6.75;;;2.90;;
68310;SDS011;55157;51.036;17.058;2022-12-07T12:11:06;5.63;;;3.25;;
68310;SDS011;55157;51.036;17.058;2022-12-07T12:13:44;3.65;;;2.55;;
68310;SDS011;55157;51.036;17.058;2022-12-07T12:16:18;5.38;;;3.58;;
68310;SDS011;55157;51.036;17.058;2022-12-07T12:19:11;4.45;;;3.08;;
68310;SDS011;55157;51.036;17.058;2022-12-07T12:21:40;6.78;;;3.95;;
68310;SDS011;55157;51.036;17.058;2022-12-07T12:24:09;9.05;;;4.22;;
68310;SDS011;55157;51.036;17.058;2022-12-07T12:26:36;8.50;;;4.70;;
68310;SDS011;55157;51.036;17.058;2022-12-07T12:29:02;7.75;;;3.90;;
68310;SDS011;55157;51.036;17.058;2022-12-07T12:31:32;6.43;;;3.63;;
68310;SDS011;55157;51.036;17.058;2022-12-07T12:33:58;5.45;;;3.35;;
68310;SDS011;55157;51.036;17.058;2022-12-07T12:36:25;7.65;;;4.20;;
68310;SDS011;55157;51.036;17.058;2022-12-07T12:38:51;5.45;;;3.20;;
68310;SDS011;55157;51.036;17.058;2022-12-07T12:43:57;6.32;;;3.42;;
68310;SDS011;55157;51.036;17.058;2022-12-07T12:46:44;9.95;;;3.88;;
68310;SDS011;55157;51.036;17.058;2022-12-07T12:51:56;7.72;;;4.10;;
68310;SDS011;55157;51.036;17.058;2022-12-07T12:54:22;8.95;;;3.47;;
68310;SDS011;55157;51.036;17.058;2022-12-07T12:56:48;6.82;;;3.78;;
68310;SDS011;55157;51.036;17.058;2022-12-07T12:59:23;6.78;;;4.30;;
68310;SDS011;55157;51.036;17.058;2022-12-07T13:01:50;7.95;;;3.50;;
68310;SDS011;55157;51.036;17.058;2022-12-07T13:04:30;7.13;;;4.18;;
68310;SDS011;55157;51.036;17.058;2022-12-07T13:06:59;6.47;;;4.35;;
68310;SDS011;55157;51.036;17.058;2022-12-07T13:09:25;8.02;;;3.72;;
68310;SDS011;55157;51.036;17.058;2022-12-07T13:11:55;5.28;;;3.47;;
68310;SDS011;55157;51.036;17.058;2022-12-07T13:17:03;5.35;;;3.63;;
68310;SDS011;55157;51.036;17.058;2022-12-07T13:25:21;8.23;;;3.53;;
68310;SDS011;55157;51.036;17.058;2022-12-07T13:27:47;4.57;;;3.38;;
68310;SDS011;55157;51.036;17.058;2022-12-07T13:30:14;8.23;;;4.10;;
68310;SDS011;55157;51.036;17.058;2022-12-07T13:32:41;8.25;;;4.88;;
68310;SDS011;55157;51.036;17.058;2022-12-07T13:37:47;7.45;;;3.92;;
68310;SDS011;55157;51.036;17.058;2022-12-07T13:40:16;7.47;;;4.10;;
68310;SDS011;55157;51.036;17.058;2022-12-07T13:42:43;7.97;;;3.80;;
68310;SDS011;55157;51.036;17.058;2022-12-07T13:45:17;7.88;;;4.00;;
68310;SDS011;55157;51.036;17.058;2022-12-07T13:47:48;9.93;;;5.63;;
68310;SDS011;55157;51.036;17.058;2022-12-07T13:50:22;6.68;;;4.35;;
68310;SDS011;55157;51.036;17.058;2022-12-07T13:52:48;7.65;;;4.63;;
68310;SDS011;55157;51.036;17.058;2022-12-07T13:55:14;7.38;;;4.70;;
68310;SDS011;55157;51.036;17.058;2022-12-07T13:57:39;6.85;;;3.35;;
68310;SDS011;55157;51.036;17.058;2022-12-07T14:00:06;13.93;;;4.20;;
68310;SDS011;55157;51.036;17.058;2022-12-07T14:02:53;10.88;;;4.55;;
68310;SDS011;55157;51.036;17.058;2022-12-07T14:05:24;7.78;;;4.22;;
68310;SDS011;55157;51.036;17.058;2022-12-07T14:07:53;7.18;;;4.25;;
68310;SDS011;55157;51.036;17.058;2022-12-07T14:10:22;7.38;;;4.35;;
68310;SDS011;55157;51.036;17.058;2022-12-07T14:12:47;12.98;;;5.25;;
68310;SDS011;55157;51.036;17.058;2022-12-07T14:15:15;8.95;;;5.00;;
68310;SDS011;55157;51.036;17.058;2022-12-07T14:17:49;9.98;;;5.50;;
68310;SDS011;55157;51.036;17.058;2022-12-07T14:20:29;17.50;;;6.05;;
68310;SDS011;55157;51.036;17.058;2022-12-07T14:22:55;11.93;;;4.85;;
68310;SDS011;55157;51.036;17.058;2022-12-07T14:25:21;7.75;;;5.18;;
68310;SDS011;55157;51.036;17.058;2022-12-07T14:27:48;9.90;;;5.28;;
68310;SDS011;55157;51.036;17.058;2022-12-07T14:30:14;10.80;;;5.97;;
68310;SDS011;55157;51.036;17.058;2022-12-07T14:32:40;14.98;;;8.93;;
68310;SDS011;55157;51.036;17.058;2022-12-07T14:35:09;6.05;;;4.57;;
68310;SDS011;55157;51.036;17.058;2022-12-07T14:37:36;10.55;;;4.38;;
68310;SDS011;55157;51.036;17.058;2022-12-07T14:40:02;11.13;;;4.72;;
68310;SDS011;55157;51.036;17.058;2022-12-07T14:42:28;10.27;;;4.88;;